createdAt,value
2018-09-26T00:01:40.541Z,5.63
2018-09-26T00:04:25.084Z,5.50
2018-09-26T00:07:00.904Z,5.53
2018-09-26T00:09:35.542Z,5.50
2018-09-26T00:12:10.684Z,5.67
2018-09-26T00:14:45.036Z,6.13
2018-09-26T00:17:19.948Z,5.70
2018-09-26T00:19:54.760Z,5.77
2018-09-26T00:22:29.657Z,6.17
2018-09-26T00:25:04.017Z,6.30
2018-09-26T00:27:38.908Z,6.03
2018-09-26T00:30:13.296Z,6.53
2018-09-26T00:32:47.852Z,5.90
2018-09-26T00:35:22.343Z,6.10
2018-09-26T00:37:57.193Z,5.90
2018-09-26T00:40:31.885Z,5.80
2018-09-26T00:43:06.516Z,5.63
2018-09-26T00:45:41.027Z,5.50
2018-09-26T00:48:15.571Z,5.80
2018-09-26T00:50:50.358Z,5.87
2018-09-26T00:53:24.852Z,6.23
2018-09-26T00:55:59.180Z,5.63
2018-09-26T00:58:33.658Z,5.43
2018-09-26T01:01:09.092Z,6.03
2018-09-26T01:03:46.704Z,5.37
2018-09-26T01:06:21.207Z,5.40
2018-09-26T01:08:56.243Z,6.30
2018-09-26T01:11:30.746Z,5.40
2018-09-26T01:14:05.887Z,6.00
2018-09-26T01:16:40.520Z,5.73
2018-09-26T01:19:15.329Z,5.80
2018-09-26T01:21:50.469Z,5.77
2018-09-26T01:24:25.074Z,5.27
2018-09-26T01:26:59.696Z,5.80
2018-09-26T01:29:34.171Z,5.77
2018-09-26T01:32:08.618Z,5.50
2018-09-26T01:34:43.153Z,6.00
2018-09-26T01:37:17.694Z,5.20
2018-09-26T01:39:52.468Z,5.40
2018-09-26T01:42:27.115Z,6.33
2018-09-26T01:45:01.838Z,5.50
2018-09-26T01:47:36.963Z,5.50
2018-09-26T01:50:11.579Z,5.90
2018-09-26T01:52:46.439Z,5.60
2018-09-26T01:55:20.988Z,6.20
2018-09-26T01:57:55.793Z,5.70
2018-09-26T02:00:30.887Z,5.50
2018-09-26T02:03:05.505Z,6.10
2018-09-26T02:05:40.428Z,5.70
2018-09-26T02:08:15.296Z,6.40
2018-09-26T02:10:49.793Z,5.93
2018-09-26T02:13:24.220Z,5.80
2018-09-26T02:15:58.771Z,6.03
2018-09-26T02:18:33.250Z,6.47
2018-09-26T02:21:07.685Z,5.93
2018-09-26T02:23:42.137Z,6.43
2018-09-26T02:26:17.200Z,5.77
2018-09-26T02:28:51.925Z,6.10
2018-09-26T02:31:26.655Z,6.00
2018-09-26T02:34:01.088Z,5.47
2018-09-26T02:36:35.439Z,5.93
2018-09-26T02:39:10.097Z,6.23
2018-09-26T02:41:44.744Z,6.47
2018-09-26T02:44:19.119Z,6.40
2018-09-26T02:46:53.564Z,5.90
2018-09-26T02:49:27.988Z,6.23
2018-09-26T02:52:03.101Z,6.00
2018-09-26T02:54:37.660Z,6.30
2018-09-26T02:57:12.637Z,6.70
2018-09-26T02:59:47.128Z,6.50
2018-09-26T03:02:21.622Z,6.00
2018-09-26T03:04:56.437Z,6.30
2018-09-26T03:07:30.948Z,6.13
2018-09-26T03:10:05.536Z,5.73
2018-09-26T03:12:40.280Z,6.40
2018-09-26T03:15:14.796Z,6.37
2018-09-26T03:17:49.839Z,6.07
2018-09-26T03:20:24.266Z,5.83
2018-09-26T03:22:58.708Z,6.77
2018-09-26T03:25:33.441Z,6.07
2018-09-26T03:28:07.975Z,6.07
2018-09-26T03:30:42.404Z,6.17
2018-09-26T03:33:17.347Z,6.17
2018-09-26T03:35:52.506Z,5.90
2018-09-26T03:38:27.273Z,5.57
2018-09-26T03:41:01.858Z,6.90
2018-09-26T03:43:36.416Z,6.20
2018-09-26T03:46:11.025Z,6.00
2018-09-26T03:48:45.643Z,6.47
2018-09-26T03:51:20.130Z,6.10
2018-09-26T03:53:54.940Z,6.50
2018-09-26T03:56:29.662Z,6.53
2018-09-26T03:59:04.421Z,6.83
2018-09-26T04:01:47.735Z,6.33
2018-09-26T04:04:22.264Z,6.00
2018-09-26T04:07:11.184Z,7.50
2018-09-26T04:09:45.604Z,6.73
2018-09-26T04:12:20.010Z,6.57
2018-09-26T04:14:54.390Z,6.17
2018-09-26T04:17:29.771Z,6.10
2018-09-26T04:20:04.650Z,6.03
2018-09-26T04:22:39.092Z,6.13
2018-09-26T04:25:13.796Z,6.10
2018-09-26T04:27:48.351Z,7.17
2018-09-26T04:30:31.272Z,6.40
2018-09-26T04:33:06.141Z,6.67
2018-09-26T04:35:40.739Z,7.23
2018-09-26T04:38:15.736Z,7.13
2018-09-26T04:40:50.537Z,6.13
2018-09-26T04:43:25.325Z,6.57
2018-09-26T04:46:01.573Z,6.87
2018-09-26T04:48:36.392Z,6.83
2018-09-26T04:51:10.904Z,7.03
2018-09-26T04:53:45.497Z,7.03
2018-09-26T04:56:19.969Z,6.80
2018-09-26T04:58:54.593Z,7.13
2018-09-26T05:01:29.452Z,7.00
2018-09-26T05:04:04.571Z,7.57
2018-09-26T05:06:39.355Z,7.93
2018-09-26T05:09:13.936Z,6.70
2018-09-26T05:11:48.764Z,6.87
2018-09-26T05:14:23.244Z,6.50
2018-09-26T05:16:58.207Z,7.50
2018-09-26T05:19:32.980Z,7.10
2018-09-26T05:22:08.376Z,7.20
2018-09-26T05:24:42.947Z,6.87
2018-09-26T05:27:17.724Z,7.57
2018-09-26T05:29:52.735Z,6.87
2018-09-26T05:32:27.260Z,7.30
2018-09-26T05:35:01.816Z,7.60
2018-09-26T05:37:36.310Z,7.17
2018-09-26T05:40:11.023Z,6.97
2018-09-26T05:42:45.859Z,7.10
2018-09-26T05:45:20.832Z,7.00
2018-09-26T05:47:55.516Z,6.53
2018-09-26T05:50:31.447Z,6.97
2018-09-26T05:53:06.745Z,7.63
2018-09-26T05:55:41.776Z,7.43
2018-09-26T05:58:16.176Z,7.67
2018-09-26T06:00:50.972Z,7.00
2018-09-26T06:03:26.092Z,7.67
2018-09-26T06:06:00.467Z,8.10
2018-09-26T06:08:35.100Z,7.00
2018-09-26T06:11:10.224Z,7.80
2018-09-26T06:13:44.976Z,7.17
2018-09-26T06:16:19.447Z,8.00
2018-09-26T06:18:53.868Z,8.03
2018-09-26T06:21:28.484Z,7.80
2018-09-26T06:24:02.904Z,7.87
2018-09-26T06:26:37.791Z,8.10
2018-09-26T06:29:12.183Z,7.73
2018-09-26T06:31:46.504Z,7.30
2018-09-26T06:34:21.264Z,8.10
2018-09-26T06:36:55.928Z,7.03
2018-09-26T06:39:30.618Z,6.90
2018-09-26T06:42:05.433Z,7.10
2018-09-26T06:44:39.877Z,7.67
2018-09-26T06:47:14.388Z,8.47
2018-09-26T06:49:48.829Z,7.00
2018-09-26T06:52:23.405Z,6.97
2018-09-26T06:54:57.808Z,6.80
2018-09-26T06:57:32.543Z,6.90
2018-09-26T07:00:07.538Z,6.80
2018-09-26T07:02:42.840Z,7.87
2018-09-26T07:05:17.258Z,6.50
2018-09-26T07:07:51.860Z,6.67
2018-09-26T07:10:26.288Z,6.37
2018-09-26T07:13:01.036Z,6.97
2018-09-26T07:15:36.108Z,6.73
2018-09-26T07:18:11.056Z,6.60
2018-09-26T07:20:45.699Z,6.13
2018-09-26T07:23:20.452Z,6.30
2018-09-26T07:25:55.219Z,6.47
2018-09-26T07:28:29.624Z,6.07
2018-09-26T07:31:05.133Z,6.63
2018-09-26T07:33:39.953Z,6.33
2018-09-26T07:36:14.555Z,5.83
2018-09-26T07:38:49.196Z,5.47
2018-09-26T07:41:23.834Z,5.23
2018-09-26T07:43:58.348Z,5.23
2018-09-26T07:46:32.787Z,4.73
2018-09-26T07:49:07.972Z,4.50
2018-09-26T07:51:42.901Z,4.53
2018-09-26T07:54:18.015Z,4.27
2018-09-26T07:56:52.580Z,4.20
2018-09-26T07:59:26.920Z,4.10
2018-09-26T08:02:01.536Z,4.13
2018-09-26T08:04:36.127Z,3.90
2018-09-26T08:07:11.387Z,3.90
2018-09-26T08:09:45.931Z,3.83
2018-09-26T08:12:20.500Z,3.70
2018-09-26T08:14:54.911Z,3.50
2018-09-26T08:17:29.297Z,3.53
2018-09-26T08:20:03.828Z,3.83
2018-09-26T08:22:38.183Z,3.43
2018-09-26T08:25:12.746Z,3.40
2018-09-26T08:27:47.231Z,3.33
2018-09-26T08:30:22.093Z,3.20
2018-09-26T08:32:56.624Z,3.50
2018-09-26T08:35:31.360Z,3.00
2018-09-26T08:38:06.357Z,3.00
2018-09-26T08:40:41.133Z,3.17
2018-09-26T08:43:15.447Z,2.80
2018-09-26T08:45:50.452Z,3.00
2018-09-26T08:48:25.224Z,2.63
2018-09-26T08:50:59.723Z,3.07
2018-09-26T08:53:34.063Z,2.90
2018-09-26T08:56:09.342Z,2.77
2018-09-26T08:58:44.655Z,2.67
2018-09-26T09:01:24.532Z,2.80
2018-09-26T09:03:59.151Z,2.60
2018-09-26T09:06:33.661Z,2.60
2018-09-26T09:09:09.364Z,3.00
2018-09-26T09:11:44.174Z,2.60
2018-09-26T09:14:18.976Z,2.50
2018-09-26T09:16:53.568Z,2.60
2018-09-26T09:19:28.108Z,2.23
2018-09-26T09:22:03.309Z,2.47
2018-09-26T09:24:37.963Z,2.20
2018-09-26T09:27:13.251Z,2.20
2018-09-26T09:29:47.888Z,2.37
2018-09-26T09:32:22.363Z,2.50
2018-09-26T09:34:57.381Z,2.90
2018-09-26T09:37:31.688Z,2.67
2018-09-26T09:40:06.432Z,2.70
2018-09-26T09:42:41.199Z,2.43
2018-09-26T09:45:16.220Z,2.60
2018-09-26T09:47:50.659Z,2.70
2018-09-26T09:50:25.496Z,2.43
2018-09-26T09:53:00.471Z,2.67
2018-09-26T09:55:35.093Z,2.37
2018-09-26T09:58:09.755Z,2.50
2018-09-26T10:00:49.503Z,2.60
2018-09-26T10:03:23.882Z,2.40
2018-09-26T10:05:59.016Z,3.00
2018-09-26T10:08:33.344Z,2.30
2018-09-26T10:11:08.311Z,2.50
2018-09-26T10:13:43.524Z,2.43
2018-09-26T10:16:18.111Z,2.43
2018-09-26T10:18:52.448Z,2.20
2018-09-26T10:21:26.922Z,2.20
2018-09-26T10:24:01.388Z,2.03
2018-09-26T10:26:35.731Z,2.20
2018-09-26T10:29:10.925Z,2.10
2018-09-26T10:31:45.324Z,2.50
2018-09-26T10:34:20.092Z,2.40
2018-09-26T10:36:55.672Z,2.30
2018-09-26T10:39:30.583Z,2.17
2018-09-26T10:42:05.323Z,2.20
2018-09-26T10:44:40.271Z,2.17
2018-09-26T10:47:14.840Z,2.17
2018-09-26T10:49:49.367Z,2.20
2018-09-26T10:52:23.729Z,2.47
2018-09-26T10:54:58.428Z,2.20
2018-09-26T10:57:32.924Z,2.10
2018-09-26T11:00:08.264Z,2.30
2018-09-26T11:02:43.142Z,2.33
2018-09-26T11:05:17.900Z,2.10
2018-09-26T11:07:52.411Z,2.40
2018-09-26T11:10:27.780Z,2.20
2018-09-26T11:13:02.384Z,2.53
2018-09-26T11:15:38.059Z,2.23
2018-09-26T11:18:12.723Z,1.80
2018-09-26T11:20:47.260Z,2.20
2018-09-26T11:23:21.737Z,2.60
2018-09-26T11:25:56.052Z,2.00
2018-09-26T11:28:30.349Z,1.93
2018-09-26T11:31:04.959Z,2.20
2018-09-26T11:33:39.332Z,2.20
2018-09-26T11:36:14.284Z,2.07
2018-09-26T11:38:48.663Z,2.30
2018-09-26T11:41:23.520Z,2.00
2018-09-26T11:43:58.224Z,2.00
2018-09-26T11:46:33.923Z,2.13
2018-09-26T11:49:08.546Z,2.20
2018-09-26T11:51:43.404Z,1.93
2018-09-26T11:54:17.845Z,1.77
2018-09-26T11:56:52.625Z,2.30
2018-09-26T11:59:27.311Z,12.97
2018-09-26T12:02:01.707Z,3.10
2018-09-26T12:04:36.369Z,2.30
2018-09-26T12:07:11.095Z,2.70
2018-09-26T12:09:45.655Z,5.73
2018-09-26T12:12:20.755Z,2.60
2018-09-26T12:14:55.435Z,1.90
2018-09-26T12:17:29.839Z,2.07
2018-09-26T12:20:04.511Z,2.20
2018-09-26T12:22:39.785Z,2.10
2018-09-26T12:25:14.570Z,2.40
2018-09-26T12:27:49.395Z,3.00
2018-09-26T12:30:24.154Z,3.17
2018-09-26T12:32:59.043Z,2.77
2018-09-26T12:35:33.868Z,7.37
2018-09-26T12:38:08.286Z,6.30
2018-09-26T12:40:42.941Z,2.57
2018-09-26T12:43:17.421Z,2.67
2018-09-26T12:45:52.246Z,2.37
2018-09-26T12:48:27.281Z,2.70
2018-09-26T12:51:01.888Z,2.50
2018-09-26T12:53:36.464Z,2.20
2018-09-26T12:56:11.069Z,2.73
2018-09-26T12:58:47.603Z,1.97
2018-09-26T13:01:22.145Z,2.33
2018-09-26T13:03:56.653Z,2.80
2018-09-26T13:06:31.040Z,2.43
2018-09-26T13:09:06.392Z,2.50
2018-09-26T13:11:41.242Z,2.40
2018-09-26T13:14:16.252Z,2.60
2018-09-26T13:16:51.459Z,2.67
2018-09-26T13:19:25.904Z,3.00
2018-09-26T13:22:00.264Z,2.63
2018-09-26T13:24:34.620Z,2.50
2018-09-26T13:27:09.533Z,2.80
2018-09-26T13:29:44.168Z,2.40
2018-09-26T13:32:18.762Z,2.70
2018-09-26T13:34:53.411Z,3.20
2018-09-26T13:37:28.127Z,3.13
2018-09-26T13:40:02.799Z,2.80
2018-09-26T13:42:37.228Z,2.67
2018-09-26T13:45:11.662Z,2.67
2018-09-26T13:47:46.096Z,3.00
2018-09-26T13:50:20.449Z,3.47
2018-09-26T13:53:06.448Z,2.93
2018-09-26T13:55:40.835Z,2.80
2018-09-26T13:58:15.200Z,3.27
2018-09-26T14:00:50.700Z,3.20
2018-09-26T14:03:25.124Z,3.37
2018-09-26T14:05:59.607Z,3.10
2018-09-26T14:08:34.641Z,3.60
2018-09-26T14:11:09.248Z,3.20
2018-09-26T14:13:43.712Z,2.93
2018-09-26T14:16:18.367Z,3.00
2018-09-26T14:18:52.970Z,3.50
2018-09-26T14:21:27.891Z,3.13
2018-09-26T14:24:02.432Z,2.60
2018-09-26T14:26:37.778Z,3.17
2018-09-26T14:29:12.358Z,2.77
2018-09-26T14:31:46.953Z,2.90
2018-09-26T14:34:21.380Z,3.00
2018-09-26T14:36:55.860Z,2.70
2018-09-26T14:39:30.441Z,2.80
2018-09-26T14:42:04.988Z,2.87
2018-09-26T14:44:39.508Z,3.13
2018-09-26T14:47:14.130Z,3.30
2018-09-26T14:49:48.806Z,3.90
2018-09-26T14:52:23.296Z,3.03
2018-09-26T14:54:58.013Z,3.07
2018-09-26T14:57:32.681Z,5.40
2018-09-26T15:00:09.044Z,3.50
2018-09-26T15:02:46.396Z,3.00
2018-09-26T15:05:20.872Z,3.20
2018-09-26T15:07:55.981Z,3.13
2018-09-26T15:10:30.437Z,2.90
2018-09-26T15:13:05.196Z,3.20
2018-09-26T15:15:39.884Z,2.80
2018-09-26T15:18:14.925Z,2.30
2018-09-26T15:20:49.535Z,3.00
2018-09-26T15:23:24.180Z,2.80
2018-09-26T15:25:58.828Z,3.07
2018-09-26T15:28:34.009Z,3.00
2018-09-26T15:31:09.115Z,3.30
2018-09-26T15:33:51.676Z,2.77
2018-09-26T15:36:34.021Z,2.90
2018-09-26T15:39:10.399Z,2.80
2018-09-26T15:41:45.098Z,2.83
2018-09-26T15:44:20.028Z,3.10
2018-09-26T15:46:54.635Z,2.77
2018-09-26T15:49:29.480Z,2.53
2018-09-26T15:52:04.494Z,2.60
2018-09-26T15:54:39.312Z,2.77
2018-09-26T15:57:13.964Z,2.83
2018-09-26T15:59:48.535Z,2.67
2018-09-26T16:02:23.185Z,2.70
2018-09-26T16:04:57.811Z,2.50
2018-09-26T16:07:32.335Z,2.53
2018-09-26T16:10:06.671Z,2.43
2018-09-26T16:12:41.622Z,2.53
2018-09-26T16:15:16.165Z,2.60
2018-09-26T16:17:51.173Z,2.53
2018-09-26T16:20:25.774Z,2.63
2018-09-26T16:23:00.501Z,2.50
2018-09-26T16:25:35.526Z,2.43
2018-09-26T16:28:10.033Z,2.40
2018-09-26T16:30:44.756Z,2.50
2018-09-26T16:33:19.250Z,2.60
2018-09-26T16:35:53.843Z,2.60
2018-09-26T16:38:28.286Z,2.57
2018-09-26T16:41:03.122Z,2.70
2018-09-26T16:43:37.422Z,2.77
2018-09-26T16:46:12.266Z,2.70
2018-09-26T16:48:46.907Z,2.50
2018-09-26T16:51:21.437Z,2.83
2018-09-26T16:53:55.936Z,2.70
2018-09-26T16:59:31.202Z,2.83
2018-09-26T17:02:05.642Z,3.30
2018-09-26T17:04:40.450Z,2.93
2018-09-26T17:07:15.138Z,2.70
2018-09-26T17:09:49.967Z,3.20
2018-09-26T17:12:24.726Z,3.00
2018-09-26T17:14:59.449Z,3.77
2018-09-26T17:17:34.302Z,3.40
2018-09-26T17:20:09.043Z,3.10
2018-09-26T17:22:49.612Z,3.23
2018-09-26T17:25:24.488Z,3.50
2018-09-26T17:27:59.899Z,3.30
2018-09-26T17:30:35.156Z,3.30
2018-09-26T17:33:09.487Z,3.10
2018-09-26T17:35:44.079Z,4.07
2018-09-26T17:38:19.330Z,3.60
2018-09-26T17:40:54.361Z,3.80
2018-09-26T17:43:28.961Z,4.00
2018-09-26T17:46:04.640Z,4.10
2018-09-26T17:48:40.237Z,3.83
2018-09-26T17:51:15.301Z,4.10
2018-09-26T17:53:50.556Z,3.93
2018-09-26T17:56:25.306Z,4.13
2018-09-26T17:59:00.852Z,4.23
2018-09-26T18:01:35.571Z,4.70
2018-09-26T18:04:11.139Z,4.10
2018-09-26T18:06:45.882Z,4.70
2018-09-26T18:09:20.660Z,4.87
2018-09-26T18:11:55.213Z,4.37
2018-09-26T18:14:30.712Z,4.80
2018-09-26T18:17:05.648Z,5.10
2018-09-26T18:19:42.429Z,5.20
2018-09-26T18:22:17.119Z,7.03
2018-09-26T18:24:51.581Z,7.07
2018-09-26T18:27:26.083Z,6.97
2018-09-26T18:30:00.829Z,5.93
2018-09-26T18:32:35.471Z,6.10
2018-09-26T18:35:10.617Z,6.10
2018-09-26T18:37:45.275Z,6.13
2018-09-26T18:40:19.939Z,6.40
2018-09-26T18:42:54.628Z,5.10
2018-09-26T18:45:29.013Z,5.70
2018-09-26T18:48:03.740Z,6.10
2018-09-26T18:50:38.699Z,5.80
2018-09-26T18:53:13.211Z,5.70
2018-09-26T18:55:47.888Z,5.80
2018-09-26T18:58:22.320Z,5.40
2018-09-26T19:00:56.632Z,5.50
2018-09-26T19:03:31.431Z,6.10
2018-09-26T19:06:06.291Z,6.10
2018-09-26T19:08:40.687Z,6.83
2018-09-26T19:11:21.664Z,6.83
2018-09-26T19:13:56.509Z,7.00
2018-09-26T19:16:31.276Z,6.80
2018-09-26T19:19:05.851Z,6.90
2018-09-26T19:21:41.823Z,7.17
2018-09-26T19:24:20.363Z,7.57
2018-09-26T19:26:55.405Z,8.80
2018-09-26T19:29:30.632Z,9.50
2018-09-26T19:32:06.259Z,9.73
2018-09-26T19:34:40.780Z,10.47
2018-09-26T19:37:15.252Z,11.13
2018-09-26T19:39:51.690Z,10.10
2018-09-26T19:42:26.004Z,11.50
2018-09-26T19:45:00.739Z,12.07
2018-09-26T19:47:35.624Z,12.67
2018-09-26T19:50:10.872Z,14.63
2018-09-26T19:52:45.323Z,14.40
2018-09-26T19:55:19.783Z,13.90
2018-09-26T19:57:54.159Z,12.50
2018-09-26T20:00:28.620Z,10.90
2018-09-26T20:03:03.056Z,8.77
2018-09-26T20:05:39.135Z,7.77
2018-09-26T20:08:15.188Z,7.63
2018-09-26T20:10:49.549Z,8.03
2018-09-26T20:13:23.877Z,7.50
2018-09-26T20:15:58.545Z,7.53
2018-09-26T20:18:33.280Z,7.70
2018-09-26T20:21:08.392Z,7.30
2018-09-26T20:23:42.703Z,7.00
2018-09-26T20:26:17.533Z,7.37
2018-09-26T20:28:52.269Z,7.10
2018-09-26T20:31:27.116Z,7.40
2018-09-26T20:34:01.911Z,6.60
2018-09-26T20:36:36.825Z,7.20
2018-09-26T20:39:12.543Z,7.10
2018-09-26T20:41:47.129Z,7.07
2018-09-26T20:44:21.556Z,6.93
2018-09-26T20:46:56.413Z,6.77
2018-09-26T20:49:31.094Z,7.00
2018-09-26T20:52:05.876Z,7.07
2018-09-26T20:54:40.483Z,7.30
2018-09-26T20:57:15.434Z,7.27
2018-09-26T20:59:50.742Z,6.77
2018-09-26T21:02:25.279Z,7.50
2018-09-26T21:04:59.737Z,6.90
2018-09-26T21:07:34.255Z,6.77
2018-09-26T21:10:09.743Z,6.73
2018-09-26T21:12:44.919Z,6.87
2018-09-26T21:15:19.287Z,6.57
2018-09-26T21:17:54.323Z,6.60
2018-09-26T21:20:29.227Z,6.40
2018-09-26T21:23:03.558Z,6.53
2018-09-26T21:25:38.620Z,6.80
2018-09-26T21:28:13.027Z,6.53
2018-09-26T21:30:47.531Z,6.80
2018-09-26T21:33:22.204Z,6.73
2018-09-26T21:35:56.980Z,6.77
2018-09-26T21:38:31.461Z,7.07
2018-09-26T21:41:05.824Z,6.47
2018-09-26T21:43:40.450Z,6.73
2018-09-26T21:46:14.897Z,6.77
2018-09-26T21:48:49.333Z,6.27
2018-09-26T21:51:24.019Z,6.67
2018-09-26T21:53:58.323Z,6.80
2018-09-26T21:56:33.195Z,6.30
2018-09-26T21:59:07.675Z,5.90
2018-09-26T22:01:42.493Z,6.20
2018-09-26T22:04:16.904Z,6.30
2018-09-26T22:06:51.224Z,5.70
2018-09-26T22:09:25.876Z,6.17
2018-09-26T22:12:00.627Z,6.77
2018-09-26T22:14:35.203Z,6.80
2018-09-26T22:17:10.460Z,6.57
2018-09-26T22:19:44.823Z,6.80
2018-09-26T22:22:20.016Z,6.20
2018-09-26T22:24:54.467Z,6.27
2018-09-26T22:27:28.907Z,6.33
2018-09-26T22:30:03.199Z,6.13
2018-09-26T22:32:37.690Z,5.87
2018-09-26T22:35:12.016Z,5.77
2018-09-26T22:37:46.528Z,5.60
2018-09-26T22:40:21.327Z,5.50
2018-09-26T22:42:55.716Z,5.73
2018-09-26T22:45:30.228Z,5.83
2018-09-26T22:48:04.748Z,5.60
2018-09-26T22:50:39.504Z,5.73
2018-09-26T22:53:14.017Z,5.70
2018-09-26T22:55:48.464Z,5.80
2018-09-26T22:58:22.743Z,5.33
2018-09-26T23:00:57.079Z,5.30
2018-09-26T23:03:31.399Z,5.00
2018-09-26T23:06:06.560Z,5.00
2018-09-26T23:08:41.214Z,4.80
2018-09-26T23:11:15.800Z,5.03
2018-09-26T23:13:50.511Z,4.97
2018-09-26T23:16:25.623Z,5.10
2018-09-26T23:19:00.065Z,4.80
2018-09-26T23:21:34.348Z,4.50
2018-09-26T23:24:08.876Z,5.00
2018-09-26T23:26:43.171Z,4.33
2018-09-26T23:29:18.016Z,4.60
2018-09-26T23:31:52.368Z,4.33
2018-09-26T23:34:26.784Z,4.50
2018-09-26T23:37:01.452Z,4.50
2018-09-26T23:39:35.908Z,4.60
2018-09-26T23:42:10.392Z,4.20
2018-09-26T23:44:44.791Z,4.67
2018-09-26T23:47:19.186Z,4.40
2018-09-26T23:49:53.490Z,4.50
2018-09-26T23:52:27.955Z,4.30
2018-09-26T23:55:02.635Z,4.50
2018-09-26T23:57:37.343Z,4.30
